createdAt,value
2023-01-21T00:01:18.764Z,101436.52
2023-01-21T00:03:46.776Z,101439.85
2023-01-21T00:06:15.390Z,101436.31
2023-01-21T00:08:44.050Z,101432.55
2023-01-21T00:11:14.751Z,101434.67
2023-01-21T00:13:44.176Z,101436.52
2023-01-21T00:16:13.250Z,101429.40
2023-01-21T00:18:42.021Z,101432.92
2023-01-21T00:21:10.399Z,101441.39
2023-01-21T00:23:38.738Z,101443.73
2023-01-21T00:26:08.408Z,101441.11
2023-01-21T00:28:37.825Z,101442.77
2023-01-21T00:31:07.852Z,101443.25
2023-01-21T00:33:37.867Z,101444.41
2023-01-21T00:36:09.472Z,101442.73
2023-01-21T00:38:38.022Z,101444.03
2023-01-21T00:41:08.266Z,101446.02
2023-01-21T00:43:36.454Z,101458.14
2023-01-21T00:46:04.515Z,101466.38
2023-01-21T00:48:32.961Z,101463.48
2023-01-21T00:51:01.210Z,101472.49
2023-01-21T00:53:32.672Z,101478.66
2023-01-21T00:56:01.995Z,101482.45
2023-01-21T00:58:30.958Z,101483.42
2023-01-21T01:01:19.880Z,101486.92
2023-01-21T01:03:49.212Z,101490.88
2023-01-21T01:06:23.227Z,101497.73
2023-01-21T01:08:51.177Z,101497.64
2023-01-21T01:11:21.765Z,101499.34
2023-01-21T01:13:49.662Z,101496.63
2023-01-21T01:16:17.594Z,101497.67
2023-01-21T01:18:46.079Z,101497.77
2023-01-21T01:21:17.349Z,101490.38
2023-01-21T01:23:46.060Z,101491.64
2023-01-21T01:26:21.233Z,101487.96
2023-01-21T01:28:49.316Z,101489.95
2023-01-21T01:31:19.990Z,101494.97
2023-01-21T01:33:48.496Z,101496.31
2023-01-21T01:36:19.656Z,101497.86
2023-01-21T01:38:47.448Z,101498.42
2023-01-21T01:41:19.624Z,101496.24
2023-01-21T01:44:01.320Z,101494.42
2023-01-21T01:46:32.401Z,101499.38
2023-01-21T01:49:00.412Z,101500.16
2023-01-21T01:51:40.343Z,101499.55
2023-01-21T01:54:11.316Z,101498.26
2023-01-21T01:56:43.482Z,101500.78
2023-01-21T01:59:11.790Z,101502.29
2023-01-21T02:01:39.767Z,101497.17
2023-01-21T02:04:14.370Z,101496.34
2023-01-21T02:06:42.950Z,101499.44
2023-01-21T02:09:10.833Z,101495.02
2023-01-21T02:11:39.210Z,101493.27
2023-01-21T02:14:07.870Z,101496.60
2023-01-21T02:16:57.180Z,101494.14
2023-01-21T02:20:00.553Z,101491.69
2023-01-21T02:22:43.682Z,101488.77
2023-01-21T02:25:42.498Z,101480.48
2023-01-21T02:28:19.240Z,101479.30
2023-01-21T02:31:36.469Z,101478.76
2023-01-21T02:34:27.639Z,101483.42
2023-01-21T02:37:15.622Z,101483.51
2023-01-21T02:39:57.446Z,101489.86
2023-01-21T02:42:51.191Z,101484.82
2023-01-21T02:46:07.897Z,101482.39
2023-01-21T02:48:42.429Z,101478.59
2023-01-21T02:51:13.169Z,101477.09
2023-01-21T02:53:40.993Z,101481.00
2023-01-21T02:56:24.940Z,101473.52
2023-01-21T02:59:04.094Z,101474.61
2023-01-21T03:01:41.141Z,101476.86
2023-01-21T03:04:30.096Z,101474.98
2023-01-21T03:07:16.181Z,101480.73
2023-01-21T03:09:44.081Z,101483.92
2023-01-21T03:12:34.992Z,101482.36
2023-01-21T03:15:33.510Z,101482.80
2023-01-21T03:18:05.138Z,101483.73
2023-01-21T03:20:38.148Z,101484.65
2023-01-21T03:23:12.909Z,101482.54
2023-01-21T03:25:41.775Z,101486.09
2023-01-21T03:28:14.185Z,101483.39
2023-01-21T03:30:45.831Z,101486.45
2023-01-21T03:33:15.615Z,101480.96
2023-01-21T03:35:47.653Z,101483.48
2023-01-21T03:38:27.401Z,101479.08
2023-01-21T03:41:01.784Z,101477.67
2023-01-21T03:43:30.096Z,101472.48
2023-01-21T03:46:29.579Z,101469.60
2023-01-21T03:49:02.907Z,101468.61
2023-01-21T03:51:36.741Z,101467.04
2023-01-21T03:54:04.979Z,101466.52
2023-01-21T03:56:32.834Z,101462.65
2023-01-21T03:59:00.658Z,101465.92
2023-01-21T04:01:28.609Z,101466.90
2023-01-21T04:03:56.550Z,101462.84
2023-01-21T04:06:24.429Z,101462.21
2023-01-21T04:08:52.365Z,101466.02
2023-01-21T04:11:20.323Z,101466.35
2023-01-21T04:13:48.450Z,101468.57
2023-01-21T04:16:16.496Z,101465.43
2023-01-21T04:18:44.302Z,101462.73
2023-01-21T04:21:12.302Z,101454.77
2023-01-21T04:23:40.302Z,101458.20
2023-01-21T04:26:08.122Z,101448.98
2023-01-21T04:28:36.149Z,101447.39
2023-01-21T04:31:04.125Z,101445.17
2023-01-21T04:33:32.125Z,101448.67
2023-01-21T04:36:01.133Z,101442.35
2023-01-21T04:38:29.147Z,101442.89
2023-01-21T04:40:57.031Z,101445.91
2023-01-21T04:43:25.006Z,101446.19
2023-01-21T04:45:53.027Z,101450.64
2023-01-21T04:48:21.002Z,101447.50
2023-01-21T04:50:48.921Z,101444.35
2023-01-21T04:53:16.826Z,101444.24
2023-01-21T04:55:44.727Z,101441.95
2023-01-21T04:58:12.669Z,101444.45
2023-01-21T05:00:40.654Z,101443.31
2023-01-21T05:03:08.500Z,101438.70
2023-01-21T05:05:36.501Z,101436.75
2023-01-21T05:08:04.432Z,101444.33
2023-01-21T05:10:32.497Z,101432.42
2023-01-21T05:13:00.407Z,101437.39
2023-01-21T05:15:28.373Z,101438.94
2023-01-21T05:17:56.418Z,101437.88
2023-01-21T05:20:24.613Z,101441.56
2023-01-21T05:22:52.502Z,101444.88
2023-01-21T05:25:20.662Z,101442.47
2023-01-21T05:27:55.694Z,101448.73
2023-01-21T05:30:23.675Z,101447.16
2023-01-21T05:32:55.434Z,101439.16
2023-01-21T05:35:24.404Z,101441.69
2023-01-21T05:37:52.371Z,101435.66
2023-01-21T05:40:20.696Z,101431.28
2023-01-21T05:42:48.867Z,101433.44
2023-01-21T05:45:16.975Z,101428.98
2023-01-21T05:47:44.860Z,101435.29
2023-01-21T05:50:13.582Z,101429.88
2023-01-21T05:52:41.488Z,101424.40
2023-01-21T05:55:09.536Z,101424.66
2023-01-21T05:57:37.484Z,101425.94
2023-01-21T06:00:06.222Z,101422.10
2023-01-21T06:02:34.114Z,101416.38
2023-01-21T06:05:02.511Z,101423.04
2023-01-21T06:07:30.327Z,101419.83
2023-01-21T06:09:58.233Z,101418.20
2023-01-21T06:12:26.197Z,101422.46
2023-01-21T06:14:53.956Z,101421.19
2023-01-21T06:17:22.331Z,101417.36
2023-01-21T06:19:50.472Z,101428.04
2023-01-21T06:22:19.013Z,101425.54
2023-01-21T06:24:46.920Z,101429.05
2023-01-21T06:27:14.870Z,101436.41
2023-01-21T06:29:43.053Z,101431.38
2023-01-21T06:32:11.087Z,101437.88
2023-01-21T06:34:39.223Z,101437.16
2023-01-21T06:37:07.094Z,101437.55
2023-01-21T06:39:35.464Z,101438.75
2023-01-21T06:42:03.341Z,101437.54
2023-01-21T06:44:31.376Z,101438.45
2023-01-21T06:47:01.380Z,101433.31
2023-01-21T06:49:29.579Z,101428.80
2023-01-21T06:51:57.857Z,101431.14
2023-01-21T06:54:26.349Z,101429.77
2023-01-21T06:56:55.056Z,101430.70
2023-01-21T06:59:22.943Z,101428.69
2023-01-21T07:01:50.808Z,101423.05
2023-01-21T07:04:18.895Z,101415.88
2023-01-21T07:06:46.753Z,101414.46
2023-01-21T07:09:14.808Z,101415.94
2023-01-21T07:11:42.764Z,101410.40
2023-01-21T07:14:10.783Z,101415.49
2023-01-21T07:16:39.797Z,101414.95
2023-01-21T07:19:07.948Z,101411.56
2023-01-21T07:21:35.873Z,101409.05
2023-01-21T07:24:03.823Z,101410.61
2023-01-21T07:26:36.181Z,101401.00
2023-01-21T07:29:06.585Z,101401.83
2023-01-21T07:31:34.877Z,101404.02
2023-01-21T07:34:02.848Z,101404.77
2023-01-21T07:36:30.961Z,101402.49
2023-01-21T07:38:59.264Z,101394.42
2023-01-21T07:41:27.183Z,101399.20
2023-01-21T07:43:54.954Z,101406.77
2023-01-21T07:46:23.771Z,101400.85
2023-01-21T07:48:52.461Z,101401.33
2023-01-21T07:51:21.215Z,101401.55
2023-01-21T07:53:49.390Z,101395.38
2023-01-21T07:56:18.579Z,101392.08
2023-01-21T07:58:47.170Z,101388.84
2023-01-21T08:01:15.079Z,101396.17
2023-01-21T08:03:42.866Z,101385.02
2023-01-21T08:06:10.917Z,101380.38
2023-01-21T08:08:38.847Z,101378.30
2023-01-21T08:11:06.904Z,101375.70
2023-01-21T08:13:34.744Z,101373.53
2023-01-21T08:16:02.842Z,101365.63
2023-01-21T08:18:30.744Z,101362.19
2023-01-21T08:21:00.077Z,101355.09
2023-01-21T08:23:28.295Z,101354.52
2023-01-21T08:25:56.340Z,101345.70
2023-01-21T08:28:24.121Z,101348.86
2023-01-21T08:30:52.131Z,101347.47
2023-01-21T08:33:20.292Z,101340.30
2023-01-21T08:35:48.216Z,101335.02
2023-01-21T08:38:16.077Z,101328.61
2023-01-21T08:40:43.845Z,101328.21
2023-01-21T08:43:11.820Z,101326.50
2023-01-21T08:45:39.718Z,101326.70
2023-01-21T08:48:07.869Z,101325.15
2023-01-21T08:50:35.832Z,101324.27
2023-01-21T08:53:03.784Z,101327.35
2023-01-21T08:55:31.822Z,101321.15
2023-01-21T08:57:59.892Z,101326.36
2023-01-21T09:00:27.847Z,101331.91
2023-01-21T09:02:55.851Z,101328.75
2023-01-21T09:05:23.784Z,101331.15
2023-01-21T09:07:51.621Z,101324.30
2023-01-21T09:10:38.713Z,101321.79
2023-01-21T09:13:08.241Z,101317.46
2023-01-21T09:15:40.830Z,101310.38
2023-01-21T09:18:09.103Z,101307.89
2023-01-21T09:20:37.384Z,101309.95
2023-01-21T09:23:24.464Z,101300.05
2023-01-21T09:26:03.934Z,101294.36
2023-01-21T09:28:37.686Z,101292.39
2023-01-21T09:31:14.713Z,101292.40
2023-01-21T09:33:47.955Z,101286.71
2023-01-21T09:36:19.401Z,101286.51
2023-01-21T09:38:48.642Z,101277.15
2023-01-21T09:41:27.980Z,101278.91
2023-01-21T09:44:03.365Z,101276.21
2023-01-21T09:46:40.980Z,101273.11
2023-01-21T09:49:28.637Z,101260.98
2023-01-21T09:52:35.060Z,101255.87
2023-01-21T09:55:05.448Z,101252.98
2023-01-21T09:57:42.215Z,101249.26
2023-01-21T10:00:43.596Z,101242.79
2023-01-21T10:03:34.272Z,101239.39
2023-01-21T10:06:09.808Z,101236.91
2023-01-21T10:09:12.058Z,101234.41
2023-01-21T10:12:14.902Z,101236.32
2023-01-21T10:14:58.355Z,101243.42
2023-01-21T10:17:55.450Z,101243.89
2023-01-21T10:20:34.189Z,101246.45
2023-01-21T10:23:14.302Z,101249.85
2023-01-21T10:25:44.724Z,101245.09
2023-01-21T10:28:25.431Z,101246.80
2023-01-21T10:30:55.534Z,101245.63
2023-01-21T10:33:26.686Z,101248.85
2023-01-21T10:36:12.830Z,101246.71
2023-01-21T10:39:01.914Z,101243.77
2023-01-21T10:41:36.377Z,101247.46
2023-01-21T10:44:34.088Z,101247.39
2023-01-21T10:47:08.217Z,101246.70
2023-01-21T10:50:15.664Z,101245.05
2023-01-21T10:52:54.360Z,101246.16
2023-01-21T10:55:46.348Z,101244.73
2023-01-21T10:58:32.796Z,101245.79
2023-01-21T11:01:09.948Z,101246.34
2023-01-21T11:03:41.564Z,101245.77
2023-01-21T11:06:13.595Z,101242.04
2023-01-21T11:08:46.402Z,101238.13
2023-01-21T11:11:29.616Z,101239.43
2023-01-21T11:13:57.886Z,101236.45
2023-01-21T11:16:43.533Z,101230.33
2023-01-21T11:19:12.647Z,101228.59
2023-01-21T11:22:06.901Z,101227.64
2023-01-21T11:24:45.244Z,101227.42
2023-01-21T11:27:32.768Z,101226.08
2023-01-21T11:30:01.415Z,101227.59
2023-01-21T11:32:31.592Z,101224.83
2023-01-21T11:35:18.306Z,101225.56
2023-01-21T11:37:46.608Z,101224.50
2023-01-21T11:40:25.994Z,101223.80
2023-01-21T11:42:56.265Z,101223.64
2023-01-21T11:45:27.134Z,101221.22
2023-01-21T11:47:55.580Z,101221.97
2023-01-21T11:50:39.855Z,101219.52
2023-01-21T11:53:07.935Z,101224.39
2023-01-21T11:55:44.797Z,101218.60
2023-01-21T11:58:28.223Z,101216.73
2023-01-21T12:01:00.303Z,101218.63
2023-01-21T12:03:40.826Z,101216.33
2023-01-21T12:06:10.665Z,101218.41
2023-01-21T12:08:40.701Z,101213.17
2023-01-21T12:11:09.181Z,101213.67
2023-01-21T12:13:58.093Z,101210.68
2023-01-21T12:16:38.297Z,101211.14
2023-01-21T12:19:18.650Z,101216.67
2023-01-21T12:21:53.670Z,101216.08
2023-01-21T12:24:28.752Z,101213.16
2023-01-21T12:27:02.565Z,101216.12
2023-01-21T12:29:54.417Z,101213.97
2023-01-21T12:32:34.640Z,101212.21
2023-01-21T12:35:30.136Z,101211.02
2023-01-21T12:38:04.389Z,101210.03
2023-01-21T12:40:43.814Z,101211.58
2023-01-21T12:43:45.347Z,101210.59
2023-01-21T12:46:23.249Z,101206.69
2023-01-21T12:48:56.556Z,101208.92
2023-01-21T12:51:32.726Z,101211.52
2023-01-21T12:54:08.932Z,101210.09
2023-01-21T12:56:54.457Z,101211.32
2023-01-21T12:59:29.914Z,101211.65
2023-01-21T13:02:05.857Z,101215.11
2023-01-21T13:04:46.113Z,101218.64
2023-01-21T13:07:45.030Z,101222.35
2023-01-21T13:10:33.387Z,101219.86
2023-01-21T13:13:42.700Z,101222.52
2023-01-21T13:16:11.794Z,101217.96
2023-01-21T13:18:43.715Z,101221.73
2023-01-21T13:21:20.489Z,101217.73
2023-01-21T13:23:59.760Z,101222.23
2023-01-21T13:26:39.608Z,101221.45
2023-01-21T13:29:35.059Z,101220.65
2023-01-21T13:32:22.738Z,101229.79
2023-01-21T13:35:11.963Z,101227.14
2023-01-21T13:38:01.278Z,101228.52
2023-01-21T13:41:18.675Z,101226.36
2023-01-21T13:44:23.804Z,101223.63
2023-01-21T13:47:00.602Z,101225.33
2023-01-21T13:49:57.565Z,101229.45
2023-01-21T13:52:39.455Z,101226.00
2023-01-21T13:55:22.422Z,101226.13
2023-01-21T13:58:02.660Z,101226.63
2023-01-21T14:00:46.558Z,101228.55
2023-01-21T14:03:34.634Z,101230.48
2023-01-21T14:06:05.585Z,101234.57
2023-01-21T14:08:42.948Z,101232.40
2023-01-21T14:11:10.824Z,101234.26
2023-01-21T14:14:13.106Z,101235.75
2023-01-21T14:17:20.393Z,101236.74
2023-01-21T14:20:21.652Z,101237.98
2023-01-21T14:22:52.911Z,101239.90
2023-01-21T14:25:39.399Z,101244.70
2023-01-21T14:28:43.276Z,101242.45
2023-01-21T14:31:17.438Z,101240.83
2023-01-21T14:34:03.437Z,101242.75
2023-01-21T14:37:01.540Z,101243.48
2023-01-21T14:39:37.526Z,101246.38
2023-01-21T14:42:10.930Z,101249.40
2023-01-21T14:44:51.425Z,101253.89
2023-01-21T14:47:24.484Z,101254.66
2023-01-21T14:49:54.218Z,101261.31
2023-01-21T14:52:39.888Z,101267.95
2023-01-21T14:55:30.793Z,101270.86
2023-01-21T14:58:01.866Z,101275.77
2023-01-21T15:00:33.798Z,101275.50
2023-01-21T15:03:49.866Z,101276.91
2023-01-21T15:06:22.722Z,101280.77
2023-01-21T15:08:58.765Z,101283.83
2023-01-21T15:11:30.396Z,101287.98
2023-01-21T15:14:22.853Z,101290.75
2023-01-21T15:16:51.248Z,101295.73
2023-01-21T15:19:25.360Z,101298.09
2023-01-21T15:21:59.154Z,101297.91
2023-01-21T15:24:32.471Z,101296.92
2023-01-21T15:27:12.913Z,101300.29
2023-01-21T15:30:04.104Z,101305.30
2023-01-21T15:32:50.205Z,101300.79
2023-01-21T15:35:31.453Z,101301.15
2023-01-21T15:38:02.654Z,101303.58
2023-01-21T15:40:39.239Z,101308.95
2023-01-21T15:43:30.543Z,101312.02
2023-01-21T15:46:13.535Z,101311.42
2023-01-21T15:49:15.667Z,101317.23
2023-01-21T15:52:04.941Z,101322.10
2023-01-21T15:54:44.988Z,101320.52
2023-01-21T15:57:28.273Z,101323.73
2023-01-21T16:00:20.789Z,101331.41
2023-01-21T16:03:33.389Z,101332.98
2023-01-21T16:06:15.233Z,101335.39
2023-01-21T16:09:02.808Z,101338.35
2023-01-21T16:11:40.648Z,101345.84
2023-01-21T16:14:13.689Z,101349.95
2023-01-21T16:17:20.927Z,101352.66
2023-01-21T16:19:52.100Z,101350.05
2023-01-21T16:22:25.037Z,101355.50
2023-01-21T16:24:59.567Z,101355.80
2023-01-21T16:27:31.071Z,101362.86
2023-01-21T16:30:01.688Z,101364.41
2023-01-21T16:32:32.386Z,101370.58
2023-01-21T16:35:00.819Z,101373.36
2023-01-21T16:37:31.274Z,101379.06
2023-01-21T16:40:20.910Z,101380.84
2023-01-21T16:43:07.454Z,101384.18
2023-01-21T16:45:35.424Z,101391.75
2023-01-21T16:48:03.568Z,101391.34
2023-01-21T16:50:32.857Z,101393.16
2023-01-21T16:53:07.966Z,101395.48
2023-01-21T16:55:45.166Z,101399.31
2023-01-21T16:58:34.348Z,101398.73
2023-01-21T17:01:10.166Z,101405.65
2023-01-21T17:03:38.725Z,101408.36
2023-01-21T17:06:14.188Z,101413.52
2023-01-21T17:08:48.220Z,101414.17
2023-01-21T17:11:16.218Z,101415.48
2023-01-21T17:13:45.313Z,101418.89
2023-01-21T17:16:34.206Z,101423.39
2023-01-21T17:19:09.419Z,101424.95
2023-01-21T17:21:44.700Z,101429.43
2023-01-21T17:24:39.324Z,101430.48
2023-01-21T17:27:10.251Z,101433.06
2023-01-21T17:29:38.261Z,101437.13
2023-01-21T17:32:24.539Z,101439.76
2023-01-21T17:35:07.495Z,101446.65
2023-01-21T17:37:44.450Z,101451.66
2023-01-21T17:40:37.689Z,101456.62
2023-01-21T17:43:17.947Z,101460.60
2023-01-21T17:45:48.015Z,101469.38
2023-01-21T17:48:27.041Z,101474.55
2023-01-21T17:50:56.312Z,101476.68
2023-01-21T17:53:28.990Z,101478.27
2023-01-21T17:56:00.592Z,101486.39
2023-01-21T17:58:31.534Z,101491.13
2023-01-21T18:01:04.327Z,101496.12
2023-01-21T18:03:32.336Z,101499.40
2023-01-21T18:06:01.152Z,101500.85
2023-01-21T18:08:29.195Z,101505.14
2023-01-21T18:10:57.572Z,101507.41
2023-01-21T18:13:25.589Z,101511.41
2023-01-21T18:15:54.319Z,101512.81
2023-01-21T18:18:28.555Z,101514.80
2023-01-21T18:20:56.815Z,101514.09
2023-01-21T18:23:24.706Z,101520.08
2023-01-21T18:25:53.755Z,101524.89
2023-01-21T18:28:25.249Z,101523.56
2023-01-21T18:30:57.804Z,101527.42
2023-01-21T18:33:26.213Z,101524.33
2023-01-21T18:35:54.379Z,101534.08
2023-01-21T18:38:30.635Z,101536.20
2023-01-21T18:41:00.126Z,101538.08
2023-01-21T18:43:28.177Z,101539.22
2023-01-21T18:45:56.307Z,101542.45
2023-01-21T18:48:29.891Z,101543.23
2023-01-21T18:50:57.887Z,101542.35
2023-01-21T18:53:25.996Z,101544.17
2023-01-21T18:55:54.484Z,101547.33
2023-01-21T18:58:22.480Z,101550.22
2023-01-21T19:00:50.590Z,101551.61
2023-01-21T19:03:18.492Z,101558.54
2023-01-21T19:05:51.065Z,101557.89
2023-01-21T19:08:24.865Z,101562.24
2023-01-21T19:10:52.812Z,101566.02
2023-01-21T19:13:21.000Z,101563.89
2023-01-21T19:15:49.859Z,101570.66
2023-01-21T19:18:17.895Z,101575.75
2023-01-21T19:20:45.819Z,101570.02
2023-01-21T19:23:17.001Z,101575.06
2023-01-21T19:25:57.176Z,101579.48
2023-01-21T19:28:25.492Z,101578.23
2023-01-21T19:30:56.378Z,101581.42
2023-01-21T19:33:25.715Z,101583.27
2023-01-21T19:36:10.368Z,101585.04
2023-01-21T19:38:38.406Z,101589.30
2023-01-21T19:41:06.251Z,101593.81
2023-01-21T19:43:34.353Z,101599.00
2023-01-21T19:46:02.413Z,101598.77
2023-01-21T19:48:30.371Z,101602.56
2023-01-21T19:50:58.436Z,101613.93
2023-01-21T19:53:26.360Z,101618.39
2023-01-21T19:55:54.950Z,101624.64
2023-01-21T19:58:27.929Z,101628.73
2023-01-21T20:00:56.246Z,101632.77
2023-01-21T20:03:27.097Z,101633.40
2023-01-21T20:06:01.129Z,101638.11
2023-01-21T20:08:30.583Z,101637.71
2023-01-21T20:10:58.599Z,101638.51
2023-01-21T20:13:31.331Z,101638.74
2023-01-21T20:16:03.755Z,101642.74
2023-01-21T20:18:34.575Z,101644.53
2023-01-21T20:21:02.396Z,101648.20
2023-01-21T20:23:32.753Z,101646.53
2023-01-21T20:26:01.075Z,101652.37
2023-01-21T20:28:44.501Z,101655.08
2023-01-21T20:31:12.882Z,101659.72
2023-01-21T20:33:42.513Z,101666.19
2023-01-21T20:36:20.039Z,101671.36
2023-01-21T20:38:48.668Z,101674.39
2023-01-21T20:41:17.235Z,101677.77
2023-01-21T20:43:45.605Z,101682.44
2023-01-21T20:46:24.544Z,101689.86
2023-01-21T20:48:53.066Z,101696.88
2023-01-21T20:51:21.458Z,101697.77
2023-01-21T20:53:49.460Z,101698.95
2023-01-21T20:56:24.559Z,101700.55
2023-01-21T20:58:52.568Z,101711.77
2023-01-21T21:01:23.155Z,101708.81
2023-01-21T21:03:51.697Z,101713.41
2023-01-21T21:06:22.756Z,101712.09
2023-01-21T21:08:51.489Z,101712.58
2023-01-21T21:11:20.067Z,101713.23
2023-01-21T21:13:52.327Z,101715.71
2023-01-21T21:16:28.672Z,101715.77
2023-01-21T21:18:56.827Z,101716.05
2023-01-21T21:21:24.865Z,101717.39
2023-01-21T21:23:53.396Z,101717.83
2023-01-21T21:26:23.174Z,101719.55
2023-01-21T21:28:55.858Z,101723.54
2023-01-21T21:31:24.807Z,101725.84
2023-01-21T21:33:52.855Z,101729.42
2023-01-21T21:36:23.964Z,101733.63
2023-01-21T21:38:56.048Z,101734.31
2023-01-21T21:41:44.875Z,101733.63
2023-01-21T21:44:13.547Z,101737.68
2023-01-21T21:47:00.716Z,101741.73
2023-01-21T21:49:29.265Z,101743.39
2023-01-21T21:51:57.683Z,101746.10
2023-01-21T21:54:25.758Z,101747.38
2023-01-21T21:56:53.688Z,101744.34
2023-01-21T21:59:21.625Z,101747.52
2023-01-21T22:01:49.691Z,101750.98
2023-01-21T22:04:17.636Z,101753.98
2023-01-21T22:06:45.678Z,101760.77
2023-01-21T22:09:13.745Z,101761.42
2023-01-21T22:11:41.659Z,101767.16
2023-01-21T22:14:09.575Z,101765.47
2023-01-21T22:16:37.586Z,101768.23
2023-01-21T22:19:05.884Z,101767.27
2023-01-21T22:21:34.540Z,101770.73
2023-01-21T22:24:08.289Z,101775.25
2023-01-21T22:26:37.075Z,101776.89
2023-01-21T22:29:05.581Z,101781.31
2023-01-21T22:31:33.820Z,101784.45
2023-01-21T22:34:02.011Z,101791.83
2023-01-21T22:36:32.082Z,101792.23
2023-01-21T22:39:00.173Z,101794.02
2023-01-21T22:41:28.529Z,101792.27
2023-01-21T22:43:57.158Z,101795.98
2023-01-21T22:46:27.547Z,101797.56
2023-01-21T22:48:56.056Z,101801.30
2023-01-21T22:51:24.106Z,101803.15
2023-01-21T22:53:53.061Z,101802.47
2023-01-21T22:56:35.399Z,101804.90
2023-01-21T22:59:08.281Z,101811.17
2023-01-21T23:01:36.541Z,101811.41
2023-01-21T23:04:04.704Z,101813.89
2023-01-21T23:06:32.615Z,101816.27
2023-01-21T23:09:00.641Z,101815.48
2023-01-21T23:11:29.792Z,101813.96
2023-01-21T23:13:57.810Z,101812.92
2023-01-21T23:16:25.730Z,101811.54
2023-01-21T23:18:53.779Z,101814.27
2023-01-21T23:21:22.428Z,101811.85
2023-01-21T23:23:50.437Z,101815.66
2023-01-21T23:26:19.614Z,101822.02
2023-01-21T23:28:47.731Z,101824.98
2023-01-21T23:31:17.788Z,101825.83
2023-01-21T23:33:49.943Z,101825.13
2023-01-21T23:36:18.657Z,101826.27
2023-01-21T23:38:46.575Z,101830.77
2023-01-21T23:41:17.100Z,101832.20
2023-01-21T23:43:45.366Z,101841.85
2023-01-21T23:46:16.730Z,101842.52
2023-01-21T23:48:45.543Z,101841.42
2023-01-21T23:51:15.279Z,101849.58
2023-01-21T23:53:43.371Z,101854.29
2023-01-21T23:56:17.802Z,101853.64
2023-01-21T23:58:45.850Z,101859.31
